« よこすかYYのりものフェスタ2019 横須賀港 2019/6/8 sat | トップページ | 定点 富山空港 2019/6/16 sun »

2019/06/11

風変 成田国際空港 2019/5/25 sat

偶然 成田国際空港 2019/5/25 sat

からつづき

まだ風はバリアブルしていますか、RWは34から16へ

RJAA 250200Z 01003KT 260V060 CAVOK 28/12 Q1016 BECMG TL0300 15006KT

20190525_rjaa_200hstba

THA641 RJAA-VTBS HS-TBA A330-343

出発機は16Rへとタクシー

20190525_rjaa_201bhnd

CPA501 RJAA-VHHH B-HND B777-267

20190525_rjaa_202ja803a

ANA817 RJAA-VDPP JA803A B787-8

ランチェン後の初離陸

20190525_rjaa_203fgznh

AFR275 RJAA-LFPG F-GZNH B777-328ER

20190525_rjaa_204ja07va

VNL303 RJAA-VHHH JA07VA A320-214

20190525_rjaa_205ja839j

JAL773 RJAA-YMML JA839J B787-8

20190525_rjaa_206hstba

先ほどのHS-TBAもたってった

20190525_rjaa_207hl8016

JNA202 RJAA-RKSI HL8016 B737-8SH

こちらも出発機なのですが、16Lまで行かされるようです

20190525_rjaa_208bhnd

CPA501

20190525_rjaa_209ja01va

VNL823 RJAA-RJKA JA01VA A320-214

20190525_rjaa_210ja837a

ANA209 RJAA-EDDL JA873A B787-9

20190525_rjaa_211ja873a

この塗装もいつまでなのやろ

20190525_rjaa_212ja873a

ANA231 RJAA-EBBR JA873A B787-9

20190525_rjaa_213n796an

AAL176 RJAA-KDFW N796AN B777-223ER

20190525_rjaa_214ja867j

JAL413 RJAA-EFHK JA867J B787-9

20190525_rjaa_215n34282

UAL827 RJAA-PGUM N34282 B787-824

20190525_rjaa_216pkgif

GIA881 RJAA-WADD PK-GIF B777-3U3ER

20190525_rjaa_217ja873a

ANA231

20190525_rjaa_218ja870j

JAL709 RJAA-VIDP JA870J B787-9

20190525_rjaa_219ja864j

JAL12 RJAA-KDFW JA864J B787-9

20190525_rjaa_220x9vskh

SIA637 RJAA-WSSS 9V-SKH A380-841

20190525_rjaa_221ja735j

JAL10 RJAA-KORD JA735J B777-346ER

20190525_rjaa_222oykbd

SAS984 RJAA-EKCH OY-KBD A340-313

RJAA 250230Z VRB03KT CAVOK 29/12 Q1016 BECMG TL0300 15006KT RMK A3001

20190525_rjaa_223x9vskh

SIA637

20190525_rjaa_224ohlwc

FIN74 RJAA-EFHK OH-LWC A350-941

20190525_rjaa_225ja781a

ANA174 RJAA-KIAH JA781A B777-381ER

20190525_rjaa_226ja15jj

JJP105 RJAA-RJCC JA15JJ A320-232

20190525_rjaa_227vtanw

AIC307 RJAA-VIDP VT-ANW B787-8

20190525_rjaa_228ja303j

JAL805 RJAA-RCTP JA303J B737-846

20190525_rjaa_229ecmlp

IBE6800 RJAA-LEMD EC-MLP A330-202

懐かしいイベリア

20190525_rjaa_230ja620a

ANA813 RJAA-VYYY JA620A B767-381ER

20190525_rjaa_231n851fd

FDX5154 RJAA-RKSI N851FD B777-FS2

20190525_rjaa_232ja602f

ANACargoは北から南へドナドナ JA602F

20190525_rjaa_233ja838j

JAL21 RJAA-UUDD JA838J B787-8

20190525_rjaa_234ja783a

ANA2 RJAA-KIAD JA783A B777-381ER

20190525_rjaa_235ja869j

JAL725 RJAA-WIII JA869J B787-9

20190525_rjaa_236ja13kz

NCA132 RJAA-PANC JA13KZ B747-8KZ

20190525_rjaa_237ja813a

ANA829 RJAA-VABB JA813A B787-8

20190525_rjaa_238ja863j

JAL407 RJAA-EDDF JA863J B787-9

20190525_rjaa_239x4raln

ALK455 RJAA-VCBI 4R-ALN A330-343

20190525_rjaa_240hstbc

THA643 RJAA-VTBS HS-TBC A330-343

20190525_rjaa_241ja872j

JAL723 RJAA-WMKK JA872J B787-9

RJAA 250300Z 18005KT CAVOK 30/13 Q1016 NOSIG RMK A3001

20190525_rjaa_242ja807p

APJ314 RJAA-RJBB JA807P A320-214

20190525_rjaa_243hl8023

ESR602 RJAA-RKSI HL8023 B737-86N

20190525_rjaa_244blpi

CRK607 RJAA-VHHH B-LPI A320-214

20190525_rjaa_245b2405

CAO1074 RJAA-ZSPD B-2409 B747-412F

20190525_rjaa_246ja04gr

SJO701 RJAA-RJFS JA04GR B737-8AL

20190525_rjaa_247hl7735

ABL115 RJAA-RKTN HL7735 A321-231

20190525_rjaa_248b50001

TTW281 RJAA-RCKH B-50001 A320-232

20190525_rjaa_249fojse

ACI801 RJAA-NWWW F-OJSE A330-202

20190525_rjaa_250hl8069

TWB202 RJAA-RKSI HL8069 B737-8AS

20190525_rjaa_251ja21jj

JJP205 RJAA-RJBB JA21J A320-232

20190525_rjaa_252n961am

AMX58 MMHO-RJAA N961AM B787-8

20190525_rjaa_253vqbua

AFL263 RJAA-UUEE VQ-BUA B777-3M0ER

20190525_rjaa_254hl8243

JNA205 RKSI-RJAA HL8243 B737-8Q8

RJAA 250330Z 14008KT 090V170 9999 FEW030 29/19 Q1016 NOSIG RMK 1CU030 A3000

20190525_rjaa_255vqbbd

SHU5480 UHWW-RJAA VQ-BBD A319-111

20190525_rjaa_256ja8323

ANA8501 RJAA-ZYTL JA8323 B767-381ERBCF

20190525_rjaa_257eidip

チャオ

20190525_rjaa_258eidip

AZA787 RJAA-LIMC EI-DIP A330-202

太陽が廻ってきて、逆光ぎみになってきたので、この場所は撤収

つづく

 

|

« よこすかYYのりものフェスタ2019 横須賀港 2019/6/8 sat | トップページ | 定点 富山空港 2019/6/16 sun »

成田国際空港」カテゴリの記事

コメント

コメントを書く



(ウェブ上には掲載しません)


コメントは記事投稿者が公開するまで表示されません。



« よこすかYYのりものフェスタ2019 横須賀港 2019/6/8 sat | トップページ | 定点 富山空港 2019/6/16 sun »